TimePDT,TemperatureF,Dew PointF,Humidity,Sea Level PressureIn,VisibilityMPH,Wind Direction,Wind SpeedMPH,Gust SpeedMPH,PrecipitationIn,Events,Conditions,WindDirDegrees,DateUTC
12:53 AM,62.1,55.0,78,30.00,10.0,North,8.1,-,N/A,,Clear,360,2013-08-08 07:53:00
1:53 AM,61.0,55.0,81,29.99,10.0,NNW,6.9,-,N/A,,Clear,340,2013-08-08 08:53:00
2:53 AM,60.1,55.0,83,29.98,10.0,North,6.9,-,N/A,,Clear,350,2013-08-08 09:53:00
3:53 AM,59.0,55.0,87,29.97,10.0,North,6.9,-,N/A,,Clear,350,2013-08-08 10:53:00
4:53 AM,57.9,55.0,90,29.97,10.0,North,9.2,-,N/A,,Clear,350,2013-08-08 11:53:00
5:53 AM,57.9,55.0,90,29.97,10.0,North,6.9,-,N/A,,Clear,350,2013-08-08 12:53:00
6:53 AM,57.9,55.0,90,29.98,10.0,NNW,8.1,-,N/A,,Clear,340,2013-08-08 13:53:00
7:53 AM,61.0,55.9,83,29.99,10.0,NNW,8.1,-,N/A,,Partly Cloudy,340,2013-08-08 14:53:00
8:53 AM,64.0,55.9,75,30.00,10.0,NW,10.4,-,N/A,,Partly Cloudy,320,2013-08-08 15:53:00
9:53 AM,66.9,55.0,66,29.99,10.0,NNW,11.5,18.4,N/A,,Clear,330,2013-08-08 16:53:00
10:53 AM,71.1,55.9,59,29.99,10.0,North,8.1,-,N/A,,Clear,350,2013-08-08 17:53:00
11:53 AM,73.9,55.0,52,29.98,10.0,North,8.1,-,N/A,,Clear,350,2013-08-08 18:53:00
12:53 PM,78.1,54.0,43,29.96,10.0,Variable,5.8,-,N/A,,Clear,0,2013-08-08 19:53:00
1:53 PM,80.1,54.0,40,29.95,10.0,Calm,Calm,-,N/A,,Clear,0,2013-08-08 20:53:00
2:53 PM,82.0,54.0,38,29.93,10.0,NW,8.1,-,N/A,,Clear,310,2013-08-08 21:53:00
3:53 PM,84.0,54.0,35,29.91,10.0,NNW,8.1,-,N/A,,Clear,330,2013-08-08 22:53:00
4:53 PM,84.0,55.0,37,29.89,10.0,NW,11.5,-,N/A,,Clear,320,2013-08-08 23:53:00
5:53 PM,82.9,54.0,37,29.88,10.0,NNW,9.2,-,N/A,,Clear,340,2013-08-09 00:53:00
6:53 PM,82.0,53.1,37,29.86,10.0,NNW,9.2,-,N/A,,Clear,330,2013-08-09 01:53:00
7:53 PM,79.0,53.1,40,29.86,10.0,NW,9.2,-,N/A,,Clear,320,2013-08-09 02:53:00
8:53 PM,73.0,54.0,51,29.89,10.0,NW,15.0,-,N/A,,Clear,320,2013-08-09 03:53:00
9:53 PM,68.0,54.0,61,29.91,10.0,NW,11.5,-,N/A,,Clear,320,2013-08-09 04:53:00
10:53 PM,66.0,53.1,63,29.91,10.0,NNW,9.2,-,N/A,,Clear,340,2013-08-09 05:53:00
11:53 PM,64.0,53.1,67,29.91,10.0,NNW,10.4,-,N/A,,Clear,340,2013-08-09 06:53:00